Time;durP1;ratioP1;P1;durP2;ratioP2;P2;SDS_P1;SDS_P2;PMS_P1;PMS_P2;Temp;Humidity;BMP_temperature;BMP_pressure;BME280_temperature;BME280_humidity;BME280_pressure;Samples;Min_cycle;Max_cycle;Signal;HPM_P1;HPM_P2
2021/03/05 00:00:28;;;;;;;16.50;9.03;;;6.10;99.90;;;;;;4989601;28;20432;-61
2021/03/05 00:02:54;;;;;;;14.00;8.70;;;6.10;99.90;;;;;;4997951;28;20439;-61
2021/03/05 00:05:20;;;;;;;12.20;8.40;;;6.20;99.90;;;;;;4988825;28;20506;-60
2021/03/05 00:07:45;;;;;;;14.83;8.10;;;6.20;99.90;;;;;;4990540;28;20204;-61
2021/03/05 00:10:16;;;;;;;11.63;7.57;;;6.20;99.90;;;;;;4991515;28;20952;-61
2021/03/05 00:12:42;;;;;;;11.63;7.53;;;6.20;99.90;;;;;;4988726;28;20533;-62
2021/03/05 00:15:09;;;;;;;11.70;7.43;;;6.20;99.90;;;;;;4989237;28;20499;-60
2021/03/05 00:17:36;;;;;;;18.43;9.10;;;6.20;99.90;;;;;;4992751;28;20665;-63
2021/03/05 00:20:06;;;;;;;13.07;8.10;;;6.20;99.90;;;;;;4991909;28;20424;-61
2021/03/05 00:22:32;;;;;;;11.93;7.30;;;6.20;99.90;;;;;;4986518;28;20439;-61
2021/03/05 00:24:57;;;;;;;13.80;7.57;;;6.20;99.90;;;;;;4989513;28;20451;-61
2021/03/05 00:27:23;;;;;;;11.13;7.50;;;6.20;99.90;;;;;;4994931;28;20200;-60
2021/03/05 00:29:49;;;;;;;10.60;7.23;;;6.20;99.90;;;;;;4987828;28;20185;-61
2021/03/05 00:32:14;;;;;;;12.27;7.57;;;6.20;99.90;;;;;;4990104;28;20196;-61
2021/03/05 00:34:40;;;;;;;14.33;8.00;;;6.10;99.90;;;;;;4990299;28;20755;-62
2021/03/05 00:37:06;;;;;;;13.10;8.30;;;6.10;99.90;;;;;;4990538;28;20193;-61
2021/03/05 00:39:32;;;;;;;15.47;8.20;;;6.00;99.90;;;;;;4988613;28;20276;-61
2021/03/05 00:41:57;;;;;;;11.30;7.97;;;6.00;99.90;;;;;;4988368;28;20187;-60
2021/03/05 00:44:23;;;;;;;21.07;8.47;;;6.00;99.90;;;;;;4990024;28;20440;-61
2021/03/05 00:46:49;;;;;;;15.53;9.70;;;6.00;99.90;;;;;;4991661;28;20249;-59
2021/03/05 00:49:15;;;;;;;11.23;8.23;;;6.00;99.90;;;;;;4988801;28;20184;-62
2021/03/05 00:51:41;;;;;;;13.03;9.30;;;6.10;99.90;;;;;;4989450;28;20609;-60
2021/03/05 00:54:08;;;;;;;17.00;8.80;;;6.10;99.90;;;;;;4990610;28;20196;-61
2021/03/05 00:56:34;;;;;;;14.30;8.63;;;6.10;99.90;;;;;;4986613;28;20538;-60
2021/03/05 00:58:59;;;;;;;12.70;8.43;;;6.00;99.90;;;;;;4990826;28;20491;-61
2021/03/05 01:01:25;;;;;;;15.43;8.90;;;6.00;99.90;;;;;;5004939;28;20691;-61
2021/03/05 01:03:51;;;;;;;21.60;8.83;;;6.00;99.90;;;;;;4987710;28;20192;-62
2021/03/05 01:06:16;;;;;;;13.47;8.87;;;6.00;99.90;;;;;;4991684;28;20189;-60
2021/03/05 01:08:42;;;;;;;13.80;9.07;;;6.00;99.90;;;;;;4983783;28;20219;-62
2021/03/05 01:11:08;;;;;;;14.33;8.87;;;6.00;99.90;;;;;;4987681;28;20645;-61
2021/03/05 01:13:33;;;;;;;14.10;8.70;;;6.00;99.90;;;;;;5006074;28;20798;-61
2021/03/05 01:15:59;;;;;;;15.77;8.90;;;6.00;99.90;;;;;;4987871;28;20268;-61
2021/03/05 01:18:25;;;;;;;17.10;9.17;;;6.00;99.90;;;;;;4987359;28;20181;-61
2021/03/05 01:20:50;;;;;;;15.53;9.57;;;6.00;99.90;;;;;;4992014;28;20177;-61
2021/03/05 01:23:16;;;;;;;14.40;8.40;;;5.90;99.90;;;;;;4986932;28;20225;-60
2021/03/05 01:25:45;;;;;;;11.50;7.20;;;5.90;99.90;;;;;;4987904;28;20348;-62
2021/03/05 01:28:28;;;;;;;14.73;8.80;;;5.90;99.90;;;;;;4991234;28;20881;-61
2021/03/05 01:30:53;;;;;;;13.97;8.17;;;5.90;99.90;;;;;;4987386;28;21112;-61
2021/03/05 01:33:19;;;;;;;19.77;9.87;;;6.00;99.90;;;;;;4988812;28;20260;-61
2021/03/05 01:35:45;;;;;;;13.63;8.93;;;6.00;99.90;;;;;;4987780;28;20589;-60
2021/03/05 01:38:11;;;;;;;13.33;8.43;;;6.00;99.90;;;;;;4994051;28;20181;-61
2021/03/05 01:40:41;;;;;;;14.60;9.40;;;6.00;99.90;;;;;;4988485;28;20436;-61
2021/03/05 01:43:12;;;;;;;23.63;9.70;;;6.00;99.90;;;;;;4987516;28;20463;-61
2021/03/05 01:45:38;;;;;;;15.17;8.50;;;6.00;99.90;;;;;;4988925;28;20463;-62
2021/03/05 01:48:15;;;;;;;14.30;8.27;;;6.00;99.90;;;;;;4989608;28;20436;-60
2021/03/05 01:51:20;;;;;;;15.90;9.00;;;6.00;99.90;;;;;;4990188;28;20515;-60
2021/03/05 01:53:47;;;;;;;15.17;8.70;;;6.00;99.90;;;;;;4947353;28;20433;-60
2021/03/05 01:56:31;;;;;;;13.60;8.17;;;5.90;99.90;;;;;;4982538;28;20490;-61
2021/03/05 01:58:58;;;;;;;16.70;8.93;;;5.90;99.90;;;;;;4991015;28;20408;-61
2021/03/05 02:01:25;;;;;;;16.07;8.77;;;5.90;99.90;;;;;;4985782;28;20421;-61
2021/03/05 02:03:51;;;;;;;14.93;8.90;;;5.80;99.90;;;;;;4989770;28;20458;-60
2021/03/05 02:06:17;;;;;;;13.83;7.80;;;5.80;99.90;;;;;;4990407;28;20471;-60
2021/03/05 02:08:42;;;;;;;13.23;8.80;;;5.80;99.90;;;;;;4989096;28;20432;-61
2021/03/05 02:11:08;;;;;;;14.70;7.80;;;5.80;99.90;;;;;;4985658;28;20224;-61
2021/03/05 02:13:34;;;;;;;16.83;8.40;;;5.80;99.90;;;;;;4988258;28;20801;-61
2021/03/05 02:16:05;;;;;;;14.40;8.00;;;5.80;99.90;;;;;;4987938;28;20514;-60
2021/03/05 02:18:48;;;;;;;13.27;7.67;;;5.80;99.90;;;;;;4988050;28;20436;-61
2021/03/05 02:21:33;;;;;;;14.20;8.43;;;5.80;99.90;;;;;;4984587;28;20408;-61
2021/03/05 02:24:14;;;;;;;12.00;7.70;;;5.80;99.90;;;;;;4987147;28;22241;-61
2021/03/05 02:26:58;;;;;;;12.90;7.30;;;5.80;99.90;;;;;;4984176;28;20458;-61
2021/03/05 02:29:45;;;;;;;12.23;6.93;;;5.80;99.90;;;;;;4990323;28;20474;-61
2021/03/05 02:32:43;;;;;;;12.50;6.77;;;5.70;99.90;;;;;;4984024;28;20522;-60
2021/03/05 02:35:11;;;;;;;9.37;6.13;;;5.70;99.90;;;;;;4989083;28;20831;-61
2021/03/05 02:37:40;;;;;;;9.00;6.10;;;5.60;99.90;;;;;;4990672;28;20511;-60
2021/03/05 02:40:30;;;;;;;9.80;5.60;;;5.60;99.90;;;;;;4992716;28;20646;-61
2021/03/05 02:42:59;;;;;;;6.30;4.37;;;5.60;99.90;;;;;;4991950;28;20424;-61
2021/03/05 02:45:30;;;;;;;7.10;4.67;;;5.50;99.90;;;;;;4993270;28;20436;-61
2021/03/05 02:48:02;;;;;;;9.60;4.60;;;5.50;99.90;;;;;;4992586;28;20424;-60
2021/03/05 02:50:30;;;;;;;8.27;5.57;;;5.40;99.90;;;;;;4991501;28;20427;-61
2021/03/05 02:52:59;;;;;;;7.60;5.10;;;5.40;99.90;;;;;;4994156;28;20419;-61
2021/03/05 02:55:26;;;;;;;8.63;4.57;;;5.40;99.90;;;;;;4988298;28;21018;-60
2021/03/05 02:57:58;;;;;;;7.90;5.07;;;5.30;99.90;;;;;;4990353;28;20422;-61
2021/03/05 03:00:25;;;;;;;8.00;5.73;;;5.30;99.90;;;;;;4992536;28;20493;-61
2021/03/05 03:02:55;;;;;;;7.00;4.87;;;5.30;99.90;;;;;;4990870;28;20424;-60
2021/03/05 03:05:22;;;;;;;6.50;4.90;;;5.30;99.90;;;;;;4988177;28;20460;-60
2021/03/05 03:07:50;;;;;;;9.37;4.60;;;5.30;99.90;;;;;;4986651;28;20468;-60
2021/03/05 03:10:16;;;;;;;17.30;5.50;;;5.20;99.90;;;;;;4990633;28;20428;-60
2021/03/05 03:12:45;;;;;;;5.30;4.00;;;5.20;99.90;;;;;;4993508;28;20432;-60
2021/03/05 03:15:12;;;;;;;7.03;4.60;;;5.20;99.90;;;;;;4986583;28;20456;-61
2021/03/05 03:17:41;;;;;;;7.13;4.50;;;5.20;99.90;;;;;;4984806;28;20480;-61
2021/03/05 03:20:08;;;;;;;9.30;4.80;;;5.20;99.90;;;;;;4982652;28;21020;-61
2021/03/05 03:22:36;;;;;;;7.73;5.10;;;5.20;99.90;;;;;;4982496;28;20501;-60
2021/03/05 03:25:03;;;;;;;8.70;5.30;;;5.20;99.90;;;;;;4979501;28;20457;-61
2021/03/05 03:27:28;;;;;;;7.20;4.73;;;5.20;99.90;;;;;;4979910;28;20489;-60
2021/03/05 03:29:54;;;;;;;7.57;4.67;;;5.20;99.90;;;;;;4987277;28;20429;-61
2021/03/05 03:32:20;;;;;;;7.17;4.87;;;5.20;99.90;;;;;;4980384;28;20177;-61
2021/03/05 03:34:47;;;;;;;7.37;5.20;;;5.20;99.90;;;;;;4976271;28;20216;-61
2021/03/05 03:37:13;;;;;;;7.13;4.90;;;5.30;99.90;;;;;;4989541;28;20428;-61
2021/03/05 03:39:39;;;;;;;6.30;5.00;;;5.20;99.90;;;;;;4980608;28;20445;-61
2021/03/05 03:42:05;;;;;;;8.30;5.33;;;5.30;99.90;;;;;;4981971;28;20431;-61
2021/03/05 03:44:31;;;;;;;7.93;4.70;;;5.20;99.90;;;;;;4983789;28;20442;-61
2021/03/05 03:47:00;;;;;;;7.50;4.80;;;5.20;99.90;;;;;;4975812;28;20417;-61
2021/03/05 03:49:29;;;;;;;6.57;4.70;;;5.20;99.90;;;;;;4979525;28;20196;-61
2021/03/05 03:52:19;;;;;;;6.20;4.80;;;5.20;99.90;;;;;;4979149;28;20417;-61
2021/03/05 03:54:46;;;;;;;6.63;5.60;;;5.10;99.90;;;;;;4982586;28;20466;-60
2021/03/05 03:57:13;;;;;;;9.43;5.37;;;5.10;99.90;;;;;;4980627;28;20789;-61
2021/03/05 03:59:39;;;;;;;8.93;5.17;;;5.10;99.90;;;;;;4985493;28;20486;-61
2021/03/05 04:02:08;;;;;;;9.20;5.87;;;5.10;99.90;;;;;;4979327;28;20421;-60
2021/03/05 04:04:36;;;;;;;9.47;6.30;;;5.10;99.90;;;;;;4979340;28;20550;-60
2021/03/05 04:07:02;;;;;;;14.70;7.60;;;5.10;99.90;;;;;;4985443;28;20420;-61
2021/03/05 04:09:29;;;;;;;11.80;6.80;;;5.10;99.90;;;;;;4996571;28;20436;-61
2021/03/05 04:11:56;;;;;;;13.73;8.47;;;5.10;99.90;;;;;;4979767;28;20455;-62
2021/03/05 04:14:26;;;;;;;14.17;7.30;;;5.10;99.90;;;;;;4987054;28;20448;-60
2021/03/05 04:16:53;;;;;;;17.03;9.33;;;5.10;99.90;;;;;;4978641;28;20851;-61
2021/03/05 04:19:21;;;;;;;14.13;8.57;;;5.10;99.90;;;;;;4982224;28;20439;-62
2021/03/05 04:21:48;;;;;;;12.07;8.17;;;5.10;99.90;;;;;;4989141;28;20455;-61
2021/03/05 04:24:15;;;;;;;16.53;9.33;;;5.10;99.90;;;;;;4981238;28;20460;-61
2021/03/05 04:26:41;;;;;;;13.30;9.30;;;5.10;99.90;;;;;;4977353;28;21006;-60
2021/03/05 04:29:06;;;;;;;14.20;8.50;;;5.10;99.90;;;;;;4983074;28;20444;-60
2021/03/05 04:31:33;;;;;;;16.47;10.27;;;5.20;99.90;;;;;;4980898;28;20189;-61
2021/03/05 04:33:59;;;;;;;16.93;10.37;;;5.10;99.90;;;;;;4979389;28;20502;-61
2021/03/05 04:36:25;;;;;;;17.83;9.80;;;5.10;99.90;;;;;;4980629;28;20456;-61
2021/03/05 04:38:50;;;;;;;13.63;8.73;;;5.10;99.90;;;;;;4986321;28;20964;-61
2021/03/05 04:41:16;;;;;;;15.47;8.60;;;5.10;99.90;;;;;;4977639;28;20205;-60
2021/03/05 04:43:42;;;;;;;15.63;8.60;;;5.10;99.90;;;;;;4978241;28;20253;-60
2021/03/05 04:46:07;;;;;;;18.17;9.93;;;5.10;99.90;;;;;;4981967;28;22201;-61
2021/03/05 04:48:33;;;;;;;16.63;8.87;;;5.00;99.90;;;;;;4976548;28;20178;-61
2021/03/05 04:50:59;;;;;;;11.97;7.20;;;5.00;99.90;;;;;;4963184;28;20539;-60
2021/03/05 04:53:24;;;;;;;12.40;7.83;;;5.00;99.90;;;;;;4980144;28;20185;-61
2021/03/05 04:55:50;;;;;;;12.40;7.87;;;5.00;99.90;;;;;;4984755;28;20637;-60
2021/03/05 04:58:18;;;;;;;12.67;8.40;;;5.00;99.90;;;;;;4978774;28;20182;-61
2021/03/05 05:00:44;;;;;;;13.37;8.00;;;5.00;99.90;;;;;;4976598;28;20174;-61
2021/03/05 05:03:09;;;;;;;12.70;8.93;;;5.00;99.90;;;;;;4980494;28;20524;-60
2021/03/05 05:05:36;;;;;;;12.67;8.37;;;4.90;99.90;;;;;;4986755;28;20508;-60
2021/03/05 05:08:04;;;;;;;14.03;8.40;;;4.90;99.90;;;;;;4974834;28;20182;-59
2021/03/05 05:10:30;;;;;;;16.70;10.23;;;4.90;99.90;;;;;;4978855;28;20436;-61
2021/03/05 05:12:55;;;;;;;17.23;10.53;;;4.90;99.90;;;;;;4978396;28;20492;-60
2021/03/05 05:15:21;;;;;;;16.23;10.63;;;4.80;99.90;;;;;;4976916;28;20279;-61
2021/03/05 05:17:47;;;;;;;19.33;10.70;;;4.80;99.90;;;;;;4981100;28;20195;-60
2021/03/05 05:20:13;;;;;;;22.13;10.13;;;4.80;99.90;;;;;;4977590;28;20440;-61
2021/03/05 05:22:39;;;;;;;19.47;11.80;;;4.80;99.90;;;;;;4967760;28;20198;-60
2021/03/05 05:25:06;;;;;;;22.10;11.20;;;4.80;99.90;;;;;;4980999;28;20599;-61
2021/03/05 05:27:32;;;;;;;18.60;10.80;;;4.70;99.90;;;;;;4975686;28;20875;-60
2021/03/05 05:29:58;;;;;;;23.07;12.23;;;4.70;99.90;;;;;;4978290;28;20528;-60
2021/03/05 05:32:23;;;;;;;18.73;11.50;;;4.70;99.90;;;;;;4975038;28;20447;-61
2021/03/05 05:34:49;;;;;;;22.13;12.10;;;4.70;99.90;;;;;;4974964;28;20480;-60
2021/03/05 05:37:15;;;;;;;22.17;12.10;;;4.70;99.90;;;;;;4972959;28;20269;-60
2021/03/05 05:39:41;;;;;;;19.73;10.93;;;4.70;99.90;;;;;;4982477;28;20522;-60
2021/03/05 05:42:08;;;;;;;18.37;11.17;;;4.70;99.90;;;;;;4980303;28;20823;-60
2021/03/05 05:44:35;;;;;;;19.10;11.10;;;4.70;99.90;;;;;;4980573;28;20234;-60
2021/03/05 05:47:01;;;;;;;19.50;11.07;;;4.70;99.90;;;;;;4980723;28;21207;-60
2021/03/05 05:49:29;;;;;;;19.10;10.77;;;4.70;99.90;;;;;;4980689;28;20436;-59
2021/03/05 05:51:59;;;;;;;18.67;9.87;;;4.70;99.90;;;;;;4987086;28;20452;-60
2021/03/05 05:54:27;;;;;;;20.20;11.67;;;4.70;99.90;;;;;;4983915;28;20460;-60
2021/03/05 05:56:53;;;;;;;18.20;10.27;;;4.70;99.90;;;;;;4983384;28;20830;-59
2021/03/05 05:59:19;;;;;;;18.90;9.90;;;4.70;99.90;;;;;;4980444;28;20440;-61
2021/03/05 06:01:47;;;;;;;16.60;10.20;;;4.70;99.90;;;;;;4989449;28;20477;-62
2021/03/05 06:04:15;;;;;;;17.80;11.07;;;4.70;99.90;;;;;;4983337;28;20456;-62
2021/03/05 06:06:42;;;;;;;22.10;9.77;;;4.70;99.90;;;;;;4991965;28;20427;-61
2021/03/05 06:09:07;;;;;;;16.30;9.70;;;4.70;99.90;;;;;;5006744;28;20813;-61
2021/03/05 06:11:35;;;;;;;17.10;9.83;;;4.70;99.90;;;;;;4986847;28;20442;-61
2021/03/05 06:14:05;;;;;;;18.33;9.77;;;4.70;99.90;;;;;;4998850;28;20503;-61
2021/03/05 06:16:32;;;;;;;16.57;9.50;;;4.60;99.90;;;;;;4997756;28;20451;-61
2021/03/05 06:18:59;;;;;;;19.30;9.83;;;4.60;99.90;;;;;;4993221;28;20819;-62
2021/03/05 06:21:39;;;;;;;13.93;8.50;;;4.60;99.90;;;;;;5007103;28;20518;-61
2021/03/05 06:24:08;;;;;;;15.43;8.07;;;4.50;99.90;;;;;;4986962;28;20471;-63
2021/03/05 06:26:54;;;;;;;15.03;9.03;;;4.50;99.90;;;;;;4988608;28;20819;-63
2021/03/05 06:29:28;;;;;;;10.70;7.67;;;4.50;99.90;;;;;;4988023;28;20439;-62
2021/03/05 06:32:01;;;;;;;13.00;7.90;;;4.50;99.90;;;;;;4987689;28;20439;-61
2021/03/05 06:34:28;;;;;;;11.23;7.17;;;4.50;99.90;;;;;;4981479;28;20452;-63
2021/03/05 06:37:06;;;;;;;11.10;6.97;;;4.50;99.90;;;;;;4979143;28;20467;-62
2021/03/05 06:39:34;;;;;;;11.40;7.53;;;4.50;99.90;;;;;;4987332;28;20433;-61
2021/03/05 06:42:07;;;;;;;12.47;7.57;;;4.40;99.90;;;;;;4992021;28;20428;-62
2021/03/05 06:44:43;;;;;;;12.60;7.00;;;4.40;99.90;;;;;;4985452;28;20862;-62
2021/03/05 06:47:12;;;;;;;13.03;6.60;;;4.40;99.90;;;;;;4990712;28;20466;-62
2021/03/05 06:49:39;;;;;;;12.37;6.50;;;4.40;99.90;;;;;;4992033;28;20438;-62
2021/03/05 06:52:05;;;;;;;11.00;6.93;;;4.40;99.90;;;;;;4986453;28;20434;-64
2021/03/05 06:54:34;;;;;;;12.90;6.90;;;4.30;99.90;;;;;;4983949;28;20830;-62
2021/03/05 06:57:01;;;;;;;11.03;6.67;;;4.30;99.90;;;;;;4986542;28;20455;-62
2021/03/05 06:59:38;;;;;;;12.17;6.90;;;4.30;99.90;;;;;;4989303;28;20468;-63
2021/03/05 07:02:09;;;;;;;12.20;6.97;;;4.30;99.90;;;;;;4991044;28;20788;-63
2021/03/05 07:04:52;;;;;;;12.17;7.33;;;4.30;99.90;;;;;;5003117;28;20448;-62
2021/03/05 07:07:19;;;;;;;12.57;7.73;;;4.20;99.90;;;;;;5004394;28;20495;-63
2021/03/05 07:09:47;;;;;;;17.70;7.60;;;4.20;99.90;;;;;;5008865;28;20427;-63
2021/03/05 07:12:17;;;;;;;12.10;7.47;;;4.20;99.90;;;;;;5007356;28;20428;-62
2021/03/05 07:14:51;;;;;;;15.10;7.70;;;4.20;99.90;;;;;;5008514;28;20459;-62
2021/03/05 07:17:19;;;;;;;10.40;6.63;;;4.20;99.90;;;;;;4999435;28;20443;-63
2021/03/05 07:19:44;;;;;;;12.57;7.37;;;4.20;99.90;;;;;;4980835;28;20983;-62
2021/03/05 07:22:14;;;;;;;13.47;7.37;;;4.10;99.90;;;;;;4978726;28;20451;-62
2021/03/05 07:24:40;;;;;;;11.23;7.20;;;4.10;99.90;;;;;;4983784;28;20462;-61
2021/03/05 07:27:11;;;;;;;11.27;6.77;;;4.10;99.90;;;;;;4983952;28;20454;-62
2021/03/05 07:29:44;;;;;;;11.97;7.20;;;4.00;99.90;;;;;;4980324;28;20482;-62
2021/03/05 07:32:39;;;;;;;14.50;7.93;;;4.00;99.90;;;;;;4978837;28;20998;-61
2021/03/05 07:35:12;;;;;;;12.10;6.77;;;4.00;99.90;;;;;;4981959;28;20477;-61
2021/03/05 07:37:45;;;;;;;12.07;6.50;;;4.00;99.90;;;;;;4980175;28;20510;-62
2021/03/05 07:40:13;;;;;;;14.53;7.83;;;4.00;99.90;;;;;;4980170;28;20434;-64
2021/03/05 07:42:39;;;;;;;14.03;7.10;;;3.90;99.90;;;;;;4985381;28;20460;-62
2021/03/05 07:45:07;;;;;;;10.87;7.20;;;3.90;99.90;;;;;;4981222;28;20479;-63
2021/03/05 07:47:35;;;;;;;17.13;8.90;;;3.90;99.90;;;;;;4983183;28;20451;-61
2021/03/05 07:50:04;;;;;;;15.20;7.77;;;3.90;99.90;;;;;;4985601;28;20463;-61
2021/03/05 07:52:31;;;;;;;15.53;8.07;;;3.90;99.90;;;;;;4987996;28;20444;-63
2021/03/05 07:54:57;;;;;;;13.23;6.87;;;3.90;99.90;;;;;;4996499;28;20457;-58
2021/03/05 07:57:22;;;;;;;12.30;7.17;;;3.90;99.90;;;;;;4995425;28;20535;-58
2021/03/05 07:59:50;;;;;;;13.13;7.77;;;3.90;99.90;;;;;;4978195;28;20818;-58
2021/03/05 08:02:21;;;;;;;10.23;6.57;;;3.90;99.90;;;;;;4983211;28;20200;-59
2021/03/05 08:04:55;;;;;;;13.27;7.43;;;4.00;99.90;;;;;;4996817;28;20715;-56
2021/03/05 08:07:25;;;;;;;14.60;7.30;;;3.90;99.90;;;;;;4991402;28;20448;-56
2021/03/05 08:09:51;;;;;;;13.60;7.03;;;3.90;99.90;;;;;;4983658;28;20470;-55
2021/03/05 08:12:41;;;;;;;13.07;6.90;;;3.90;99.90;;;;;;4992248;28;21066;-55
2021/03/05 08:15:06;;;;;;;13.53;7.40;;;3.90;99.90;;;;;;4985845;28;20297;-56
2021/03/05 08:17:34;;;;;;;12.03;6.73;;;4.00;99.90;;;;;;4986575;28;20566;-56
2021/03/05 08:19:59;;;;;;;14.23;7.33;;;4.00;99.90;;;;;;4977736;28;20170;-54
2021/03/05 08:22:27;;;;;;;11.80;6.47;;;4.00;99.90;;;;;;4982288;28;20423;-55
2021/03/05 08:25:13;;;;;;;8.33;5.50;;;4.00;99.90;;;;;;4979154;28;20248;-62
2021/03/05 08:27:38;;;;;;;9.90;6.13;;;4.10;99.90;;;;;;4983719;28;20912;-60
2021/03/05 08:30:13;;;;;;;11.80;5.90;;;4.20;99.90;;;;;;4983607;28;20439;-61
2021/03/05 08:32:51;;;;;;;9.43;5.77;;;4.20;99.90;;;;;;4986324;28;20169;-60
2021/03/05 08:35:30;;;;;;;9.87;6.00;;;4.30;99.90;;;;;;4993405;28;20474;-61
2021/03/05 08:38:00;;;;;;;9.50;6.10;;;4.30;99.90;;;;;;4985250;28;20433;-61
2021/03/05 08:40:29;;;;;;;12.07;6.20;;;4.30;99.90;;;;;;4994463;28;20467;-61
2021/03/05 08:43:16;;;;;;;13.03;6.30;;;4.20;99.90;;;;;;4983135;28;20447;-63
2021/03/05 08:45:43;;;;;;;10.30;5.97;;;4.20;99.90;;;;;;4998264;28;20828;-61
2021/03/05 08:48:11;;;;;;;10.20;5.80;;;4.20;99.90;;;;;;4990547;28;20435;-61
2021/03/05 08:50:38;;;;;;;11.93;7.07;;;4.20;99.90;;;;;;4991556;28;20462;-61
2021/03/05 08:53:07;;;;;;;11.23;6.63;;;4.20;99.90;;;;;;4989873;28;20436;-60
2021/03/05 08:55:35;;;;;;;12.30;5.90;;;4.30;99.90;;;;;;4995829;28;20474;-60
2021/03/05 08:58:01;;;;;;;10.07;5.60;;;4.30;99.70;;;;;;4990048;28;20460;-60
2021/03/05 09:00:33;;;;;;;11.10;5.87;;;4.30;99.40;;;;;;4982749;28;20463;-61
2021/03/05 09:03:13;;;;;;;10.17;6.10;;;4.30;99.60;;;;;;4990295;28;20433;-60
2021/03/05 09:05:44;;;;;;;11.33;6.30;;;4.30;99.70;;;;;;4984846;28;20460;-62
2021/03/05 09:08:12;;;;;;;9.50;6.07;;;4.30;99.50;;;;;;4978893;28;20471;-62
2021/03/05 09:10:45;;;;;;;8.93;6.00;;;4.30;99.70;;;;;;5005142;28;20463;-61
2021/03/05 09:13:12;;;;;;;12.07;6.90;;;4.30;99.50;;;;;;4988671;28;20440;-61
2021/03/05 09:15:44;;;;;;;11.50;7.20;;;4.30;99.20;;;;;;4979892;28;20475;-62
2021/03/05 09:18:13;;;;;;;12.43;7.40;;;4.30;99.30;;;;;;4986643;28;20529;-60
2021/03/05 09:20:54;;;;;;;12.83;7.30;;;4.20;99.20;;;;;;4987259;28;20557;-62
2021/03/05 09:23:29;;;;;;;12.87;7.43;;;4.20;99.30;;;;;;4987121;28;20440;-61
2021/03/05 09:25:57;;;;;;;12.43;7.03;;;4.20;99.10;;;;;;4983436;28;20459;-60
2021/03/05 09:28:25;;;;;;;10.57;6.23;;;4.20;99.20;;;;;;4986867;28;20455;-60
2021/03/05 09:30:54;;;;;;;12.97;6.90;;;4.20;99.20;;;;;;4986636;28;20437;-61
2021/03/05 09:33:39;;;;;;;10.50;6.70;;;4.10;98.80;;;;;;4988547;28;20436;-61
2021/03/05 09:36:13;;;;;;;12.50;6.10;;;4.10;99.50;;;;;;4999085;28;20456;-60
2021/03/05 09:38:41;;;;;;;8.83;5.20;;;4.10;99.30;;;;;;4987622;28;20436;-60
2021/03/05 09:41:26;;;;;;;10.43;6.20;;;4.10;98.90;;;;;;4984659;28;20436;-59
2021/03/05 09:43:59;;;;;;;9.07;6.07;;;4.00;98.60;;;;;;4979682;28;20428;-60
2021/03/05 09:46:27;;;;;;;14.13;6.87;;;4.00;99.00;;;;;;4985699;28;20534;-60
2021/03/05 09:48:54;;;;;;;14.47;6.93;;;4.00;98.70;;;;;;4996447;28;20432;-59
2021/03/05 09:51:21;;;;;;;9.60;5.83;;;3.90;98.80;;;;;;4995485;28;20426;-59
2021/03/05 09:53:51;;;;;;;12.43;7.20;;;3.90;98.90;;;;;;4983665;28;20467;-60
2021/03/05 09:56:17;;;;;;;12.70;6.13;;;3.90;99.00;;;;;;4996041;28;21017;-60
2021/03/05 09:59:01;;;;;;;11.80;7.37;;;3.90;99.10;;;;;;4996206;28;20424;-60
2021/03/05 10:01:28;;;;;;;15.13;7.40;;;4.00;98.90;;;;;;4986358;28;20447;-60
2021/03/05 10:03:59;;;;;;;15.63;6.90;;;4.00;98.90;;;;;;5010272;28;20802;-60
2021/03/05 10:06:26;;;;;;;14.73;7.30;;;3.90;98.70;;;;;;4994453;28;20432;-60
2021/03/05 10:09:11;;;;;;;17.07;8.00;;;3.90;99.00;;;;;;4989986;28;20444;-59
2021/03/05 10:11:38;;;;;;;12.90;7.20;;;3.90;98.90;;;;;;4988565;28;20443;-60
2021/03/05 10:14:09;;;;;;;13.40;7.37;;;4.00;98.80;;;;;;4988729;28;20463;-60
2021/03/05 10:16:36;;;;;;;17.63;7.90;;;3.90;98.50;;;;;;4988260;28;20456;-61
2021/03/05 10:19:05;;;;;;;15.77;8.43;;;3.90;98.70;;;;;;4998843;28;20453;-60
2021/03/05 10:21:33;;;;;;;13.27;6.93;;;3.90;98.80;;;;;;4981784;28;20449;-60
2021/03/05 10:24:04;;;;;;;14.63;7.60;;;3.80;98.70;;;;;;4986747;28;20472;-56
2021/03/05 10:26:30;;;;;;;12.37;7.33;;;3.80;98.90;;;;;;4982518;28;20451;-60
2021/03/05 10:29:00;;;;;;;16.37;8.27;;;3.80;99.10;;;;;;4981624;28;20580;-60
2021/03/05 10:31:39;;;;;;;15.80;7.83;;;3.90;99.10;;;;;;4984613;28;20452;-61
2021/03/05 10:34:05;;;;;;;16.23;7.90;;;3.90;99.00;;;;;;4997315;28;20557;-61
2021/03/05 10:36:31;;;;;;;16.20;8.43;;;3.90;99.00;;;;;;4986322;28;20876;-61
2021/03/05 10:38:57;;;;;;;12.50;7.30;;;4.00;99.20;;;;;;4980864;28;20594;-60
2021/03/05 10:41:22;;;;;;;12.20;7.00;;;4.00;98.70;;;;;;4971061;28;20201;-60
2021/03/05 10:43:48;;;;;;;14.23;7.10;;;4.00;98.60;;;;;;4984202;28;20307;-60
2021/03/05 10:46:14;;;;;;;14.33;7.50;;;4.00;98.70;;;;;;4981872;28;20204;-59
2021/03/05 10:48:40;;;;;;;12.70;7.10;;;4.00;98.60;;;;;;4989809;28;20432;-60
2021/03/05 10:51:06;;;;;;;10.73;7.10;;;4.00;98.40;;;;;;4983831;28;20185;-61
2021/03/05 10:53:31;;;;;;;11.10;7.03;;;4.00;98.10;;;;;;4984077;28;20711;-61
2021/03/05 10:55:57;;;;;;;11.07;5.87;;;4.00;98.10;;;;;;4990867;28;20223;-60
2021/03/05 10:58:23;;;;;;;14.07;7.50;;;4.00;97.70;;;;;;4987070;28;20198;-61
2021/03/05 11:00:49;;;;;;;13.13;7.20;;;4.00;97.60;;;;;;4987529;28;20870;-60
2021/03/05 11:03:15;;;;;;;15.47;7.00;;;4.00;97.40;;;;;;4984432;28;20247;-61
2021/03/05 11:05:41;;;;;;;11.87;6.43;;;4.00;97.60;;;;;;4982761;28;20455;-60
2021/03/05 11:08:07;;;;;;;13.67;7.07;;;4.00;97.50;;;;;;4983684;28;20201;-60
2021/03/05 11:10:33;;;;;;;12.87;6.53;;;4.10;97.40;;;;;;4988890;28;20645;-60
2021/03/05 11:12:58;;;;;;;11.93;6.40;;;4.10;97.20;;;;;;4993158;28;20431;-60
2021/03/05 11:15:25;;;;;;;23.13;6.57;;;4.20;97.30;;;;;;4988417;28;20205;-59
2021/03/05 11:17:51;;;;;;;13.30;6.50;;;4.20;97.70;;;;;;4987564;28;20267;-60
2021/03/05 11:20:17;;;;;;;9.77;6.10;;;4.30;97.60;;;;;;4990801;28;20531;-60
2021/03/05 11:22:43;;;;;;;16.20;8.80;;;4.30;96.90;;;;;;4988060;28;20196;-59
2021/03/05 11:25:09;;;;;;;11.60;6.83;;;4.40;96.90;;;;;;4989954;28;20468;-60
2021/03/05 11:27:35;;;;;;;14.60;6.93;;;4.40;96.80;;;;;;4990476;28;20678;-62
2021/03/05 11:30:05;;;;;;;13.33;6.60;;;4.40;96.30;;;;;;4991163;28;20459;-61
2021/03/05 11:32:35;;;;;;;13.00;6.93;;;4.40;96.20;;;;;;4991663;28;20447;-59
2021/03/05 11:35:02;;;;;;;13.50;7.83;;;4.40;96.30;;;;;;4985367;28;20455;-59
2021/03/05 11:37:28;;;;;;;14.20;7.10;;;4.40;96.50;;;;;;4988670;28;20439;-62
2021/03/05 11:39:55;;;;;;;13.43;7.00;;;4.40;96.50;;;;;;4988346;28;21019;-61
2021/03/05 11:42:24;;;;;;;17.37;8.10;;;4.50;96.60;;;;;;4998855;28;20430;-54
2021/03/05 11:44:50;;;;;;;12.53;7.20;;;4.60;96.80;;;;;;4999084;28;20528;-59
2021/03/05 11:47:16;;;;;;;11.70;6.90;;;4.60;96.50;;;;;;4999973;28;20444;-59
2021/03/05 11:49:44;;;;;;;12.33;7.57;;;4.60;96.50;;;;;;4991600;28;21109;-58
2021/03/05 11:52:09;;;;;;;11.73;6.80;;;4.70;96.40;;;;;;4987156;28;20429;-58
2021/03/05 11:54:35;;;;;;;12.37;7.93;;;4.70;96.10;;;;;;4991869;28;20806;-62
2021/03/05 11:57:01;;;;;;;11.03;7.10;;;4.60;95.80;;;;;;4991408;28;20207;-60
2021/03/05 11:59:27;;;;;;;16.00;7.97;;;4.60;95.90;;;;;;4980736;28;20189;-63
2021/03/05 12:01:52;;;;;;;15.30;7.27;;;4.60;95.70;;;;;;4985403;28;20185;-60
2021/03/05 12:04:18;;;;;;;13.90;6.50;;;4.60;95.70;;;;;;4983204;28;20645;-60
2021/03/05 12:06:44;;;;;;;11.13;6.53;;;4.60;95.60;;;;;;4982471;28;21018;-60
2021/03/05 12:09:09;;;;;;;12.50;6.57;;;4.60;95.60;;;;;;4989471;28;20259;-60
2021/03/05 12:11:36;;;;;;;11.03;6.23;;;4.60;95.40;;;;;;4982987;28;20639;-61
2021/03/05 12:14:02;;;;;;;11.03;6.60;;;4.60;95.40;;;;;;4987493;28;20260;-61
2021/03/05 12:16:27;;;;;;;12.50;7.10;;;4.70;95.40;;;;;;4990880;28;21226;-61
2021/03/05 12:18:53;;;;;;;10.20;5.80;;;4.80;95.00;;;;;;4989401;28;20185;-60
2021/03/05 12:21:19;;;;;;;13.93;6.90;;;4.80;94.60;;;;;;4991748;28;20173;-59
2021/03/05 12:23:45;;;;;;;10.67;6.00;;;4.90;94.20;;;;;;4987923;28;20181;-59
2021/03/05 12:26:10;;;;;;;13.50;7.13;;;4.80;94.00;;;;;;4962099;28;20470;-59
2021/03/05 12:28:36;;;;;;;12.10;6.20;;;4.80;94.40;;;;;;4989697;28;20232;-60
2021/03/05 12:31:02;;;;;;;11.10;6.07;;;4.80;94.40;;;;;;4997517;28;20189;-59
2021/03/05 12:33:28;;;;;;;14.87;5.90;;;4.80;94.60;;;;;;4980149;28;20190;-62
2021/03/05 12:35:53;;;;;;;13.23;6.50;;;4.80;94.60;;;;;;4985241;28;20476;-61
2021/03/05 12:38:20;;;;;;;11.97;6.63;;;4.70;94.90;;;;;;4991795;28;20235;-60
2021/03/05 12:40:45;;;;;;;16.20;6.53;;;4.70;94.90;;;;;;4990776;28;20442;-60
2021/03/05 12:43:11;;;;;;;9.83;5.97;;;4.70;94.80;;;;;;4986601;28;20247;-61
2021/03/05 12:45:37;;;;;;;10.67;6.43;;;4.70;95.00;;;;;;4990412;28;20207;-60
2021/03/05 12:48:03;;;;;;;14.30;6.43;;;4.70;94.70;;;;;;4985146;28;20185;-62
2021/03/05 12:50:30;;;;;;;12.00;6.70;;;4.60;94.70;;;;;;4984693;28;20219;-60
2021/03/05 12:52:55;;;;;;;10.73;6.20;;;4.60;94.90;;;;;;4992443;28;20437;-60
2021/03/05 12:55:21;;;;;;;11.90;6.60;;;4.60;95.10;;;;;;4997186;28;20521;-60